Latest Coastal Weather Observations for Cape Flattery

IDQ60701

Issued at 3:31 am EST Saturday 23 May 2015 (issued every 10 minutes, with the page automatically refreshed every 10 minutes)

About coastal observations | Map of coastal stations | Coastal observations for QLD | Marine services | Other Formats
Station Details ID: 031213 Name: CAPE FLATTERY Lat: -14.97 Lon: 145.31 Height: 18.5 m
Data from the previous 72 hours. | See also: Recent months at Cape Flattery
Date/Time
EST
Temp

°C
Wind Pressure Rain
since 9am
mm
Weather Cloud Vis
km
Sea
Height
m
Swell
Dir
 
Speed
knots
Gust
knots
hPa Trend Height
m
Period
s
Dir
23/03:30am 25.0 SE 18 24 1014.9 - 0.0 - - - - - - -
23/03:00am 24.9 SE 17 23 1015.0 - 0.0 - - - - - - -
23/02:30am 25.1 SE 18 23 1015.0 - 0.0 - - - - - - -
23/02:00am 25.0 SE 17 24 1015.2 - 0.0 - - - - - - -
23/01:30am 24.7 SE 15 20 1015.4 - 0.0 - - - - - - -
23/01:00am 24.8 SE 16 21 1015.6 - 0.0 - - - - - - -
23/12:30am 24.6 SE 15 21 1016.0 - 0.0 - - - - - - -
23/12:00am 24.7 SE 15 21 1016.2 - 0.0 - - - - - - -
 
Date/Time
EST
Temp

°C
Wind Pressure Rain
since 9am
mm
Weather Cloud Vis
km
Sea
Height
m
Swell
Dir
 
Speed
knots
Gust
knots
hPa Trend Height
m
Period
s
Dir
22/11:30pm 24.5 SE 13 19 1016.3 - 0.0 - - - - - - -
22/11:00pm 24.7 SE 14 18 1016.4 - 0.0 - - - - - - -
22/10:30pm 24.8 SE 15 20 1016.6 - 0.0 - - - - - - -
22/10:00pm 24.7 SE 15 20 1016.6 - 0.0 - - - - - - -
22/09:30pm 24.8 SE 15 19 1016.4 - 0.0 - - - - - - -
22/09:00pm 24.6 SE 13 17 1016.4 - 0.0 - - - - - - -
22/08:30pm 24.6 SE 12 17 1016.2 - 0.0 - - - - - - -
22/08:00pm 24.7 SE 14 18 1016.0 - 0.0 - - - - - - -
22/07:30pm 24.8 SE 14 20 1015.8 - 0.0 - - - - - - -
22/07:00pm 24.8 SE 13 17 1015.7 - 0.0 - - - - - - -
22/06:30pm 24.9 SE 14 19 1015.4 - 0.0 - - - - - - -
22/06:00pm 24.9 SE 14 19 1015.1 - 0.0 - - - - - - -
22/05:30pm 25.6 SE 16 22 1014.9 - 0.0 - - - - - - -
22/05:00pm 25.9 SSE 17 22 1014.6 - 0.0 - - - - - - -
22/04:30pm 27.1 SSE 16 21 1014.4 - 0.0 - - - - - - -
22/04:00pm 27.1 SSE 15 20 1014.2 - 0.0 - - - - - - -
22/03:30pm 27.6 SSE 16 21 1014.2 - 0.0 - - - - - - -
22/03:00pm 28.2 SSE 16 22 1014.3 - 0.0 - - - - - - -
22/02:30pm 28.0 SSE 16 20 1014.4 - 0.0 - - - - - - -
22/02:00pm 28.7 SSE 16 21 1014.6 - 0.0 - - - - - - -
22/01:30pm 27.6 SSE 16 20 1014.9 - 0.0 - - - - - - -
22/01:00pm 27.2 SSE 17 21 1015.2 - 0.0 - - - - - - -
22/12:30pm 28.0 SSE 17 22 1015.6 - 0.0 - - - - - - -
22/12:00pm 27.4 SSE 17 22 1015.9 - 0.0 - - - - - - -
22/11:30am 27.5 SSE 16 21 1016.1 - 0.0 - - - - - - -
22/11:00am 28.6 SSE 17 21 1016.5 - 0.0 - - - - - - -
22/10:30am 27.9 SSE 15 21 1017.0 - 0.0 - - - - - - -
22/10:00am 27.5 SSE 17 21 1017.2 - 0.0 - - - - - - -
22/09:30am 27.2 SSE 15 20 1017.0 - 0.0 - - - - - - -
22/09:00am 26.9 SSE 15 19 1017.0 - 0.0 - - - - - - -
22/08:30am 26.4 SSE 13 15 1016.7 - 0.0 - - - - - - -
22/08:00am 25.9 SE 11 14 1016.5 - 0.0 - - - - - - -
22/07:30am 25.1 SE 11 15 1016.3 - 0.0 - - - - - - -
22/07:00am 24.2 SE 10 13 1016.0 - 0.0 - - - - - - -
22/06:30am 23.7 SE 9 11 1015.8 - 0.0 - - - - - - -
22/06:00am 23.9 SSE 9 11 1015.4 - 0.0 - - - - - - -
22/05:30am 23.9 SE 9 11 1015.2 - 0.0 - - - - - - -
22/05:00am 24.0 SE 8 11 1015.1 - 0.0 - - - - - - -
22/04:30am 23.9 SE 7 8 1015.0 - 0.0 - - - - - - -
22/04:00am 23.7 SE 7 8 1014.7 - 0.0 - - - - - - -
22/03:30am 24.0 SE 8 10 1014.7 - 0.0 - - - - - - -
22/03:00am 24.2 SE 9 13 1014.9 - 0.0 - - - - - - -
22/02:30am 24.2 SE 10 12 1015.1 - 0.0 - - - - - - -
22/02:00am 24.3 SE 10 12 1015.2 - 0.0 - - - - - - -
22/01:30am 24.3 SE 10 14 1015.3 - 0.0 - - - - - - -
22/01:00am 24.4 SE 10 13 1015.6 - 0.0 - - - - - - -
22/12:30am 24.4 SE 11 14 1015.8 - 0.0 - - - - - - -
22/12:00am 24.5 SE 12 16 1016.0 - 0.0 - - - - - - -
 
Date/Time
EST
Temp

°C
Wind Pressure Rain
since 9am
mm
Weather Cloud Vis
km
Sea
Height
m
Swell
Dir
 
Speed
knots
Gust
knots
hPa Trend Height
m
Period
s
Dir
21/11:30pm 24.7 SE 12 16 1016.3 - 0.0 - - - - - - -
21/11:00pm 24.8 SE 11 15 1016.7 - 0.0 - - - - - - -
21/10:30pm 24.9 SE 12 16 1017.0 - 0.0 - - - - - - -
21/10:00pm 24.6 SE 10 13 1016.9 - 0.0 - - - - - - -
21/09:30pm 24.8 SE 11 16 1016.8 - 0.0 - - - - - - -
21/09:00pm 24.6 SE 9 13 1016.7 - 0.0 - - - - - - -
21/08:30pm 24.9 SE 10 14 1016.5 - 0.0 - - - - - - -
21/08:00pm 25.1 SE 11 16 1016.3 - 0.0 - - - - - - -
21/07:30pm 25.1 SE 12 17 1015.8 - 0.0 - - - - - - -
21/07:00pm 25.0 SE 9 13 1015.7 - 0.0 - - - - - - -
21/06:30pm 25.1 SE 10 13 1015.6 - 0.0 - - - - - - -
21/06:00pm 25.4 SE 12 15 1015.3 - 0.0 - - - - - - -
21/05:30pm 25.8 SE 12 17 1015.0 - 0.0 - - - - - - -
21/05:00pm 26.4 SE 12 16 1014.6 - 0.0 - - - - - - -
21/04:30pm 27.0 SE 11 16 1014.4 - 0.0 - - - - - - -
21/04:00pm 27.1 SE 13 16 1014.3 - 0.0 - - - - - - -
21/03:30pm 27.0 SE 13 17 1014.4 - 0.0 - - - - - - -
21/03:00pm 27.5 SSE 15 19 1014.5 - 0.0 - - - - - - -
21/02:30pm 27.6 SSE 16 21 1014.7 - 0.0 - - - - - - -
21/02:00pm 28.4 SSE 16 20 1015.0 - 0.0 - - - - - - -
21/01:30pm 28.1 SSE 14 18 1015.2 - 0.0 - - - - - - -
21/01:00pm 27.9 SSE 16 20 1015.6 - 0.0 - - - - - - -
21/12:30pm 27.5 SSE 15 19 1016.0 - 0.0 - - - - - - -
21/12:00pm 27.5 SSE 14 19 1016.5 - 0.0 - - - - - - -
21/11:30am 28.4 SSE 15 20 1016.9 - 0.0 - - - - - - -
21/11:00am 28.0 SE 14 18 1017.3 - 0.0 - - - - - - -
21/10:30am 28.0 SE 14 18 1017.6 - 0.0 - - - - - - -
21/10:00am 27.6 SE 13 18 1017.9 - 0.0 - - - - - - -
21/09:30am 27.5 SE 14 17 1017.9 - 0.0 - - - - - - -
21/09:00am 27.2 SE 12 15 1017.7 - 0.0 - - - - - - -
21/08:30am 26.6 SE 12 16 1017.6 - 0.0 - - - - - - -
21/08:00am 26.1 SE 11 15 1017.3 - 0.0 - - - - - - -
21/07:30am 25.3 SE 10 14 1017.1 - 0.0 - - - - - - -
21/07:00am 24.7 SE 8 11 1016.6 - 0.0 - - - - - - -
21/06:30am 24.2 SE 9 12 1016.3 - 0.0 - - - - - - -
21/06:00am 24.2 SE 9 13 1016.0 - 0.0 - - - - - - -
21/05:30am 24.3 SE 10 13 1015.8 - 0.0 - - - - - - -
21/05:00am 24.4 SE 10 16 1015.7 - 0.0 - - - - - - -
21/04:30am 24.6 SE 10 14 1015.6 - 0.0 - - - - - - -
21/04:00am 24.6 SE 11 15 1015.8 - 0.0 - - - - - - -
21/03:30am 24.5 SE 10 13 1015.7 - 0.0 - - - - - - -
21/03:00am 24.7 SE 11 14 1015.9 - 0.0 - - - - - - -
21/02:30am 24.6 SE 10 13 1016.0 - 0.0 - - - - - - -
21/02:00am 24.7 SE 11 14 1016.0 - 0.0 - - - - - - -
21/01:30am 24.6 SE 11 13 1016.3 - 0.0 - - - - - - -
21/01:00am 24.7 SE 11 15 1016.6 - 0.0 - - - - - - -
21/12:30am 24.8 SE 11 15 1016.7 - 0.0 - - - - - - -
21/12:00am 24.6 SE 11 14 1016.8 - 0.0 - - - - - - -
 
Date/Time
EST
Temp

°C
Wind Pressure Rain
since 9am
mm
Weather Cloud Vis
km
Sea
Height
m
Swell
Dir
 
Speed
knots
Gust
knots
hPa Trend Height
m
Period
s
Dir
20/11:30pm 24.9 SE 13 19 1016.8 - 0.0 - - - - - - -
20/11:00pm 24.9 SE 12 19 1017.0 - 0.0 - - - - - - -
20/10:30pm 24.8 SE 12 16 1017.1 - 0.0 - - - - - - -
20/10:00pm 24.9 SE 13 17 1017.2 - 0.0 - - - - - - -
20/09:30pm 24.9 SE 11 15 1017.1 - 0.0 - - - - - - -
20/09:00pm 24.9 SE 12 17 1017.2 - 0.0 - - - - - - -
20/08:30pm 25.0 SE 13 16 1016.8 - 0.0 - - - - - - -
20/08:00pm 25.1 SE 12 18 1016.5 - 0.0 - - - - - - -
20/07:30pm 25.1 SE 12 17 1016.0 - 0.0 - - - - - - -
20/07:00pm 24.9 SE 13 19 1015.5 - 0.0 - - - - - - -
20/06:30pm 24.8 SE 12 15 1015.2 - 0.0 - - - - - - -
20/06:00pm 25.0 SE 12 17 1015.1 - 0.0 - - - - - - -
20/05:30pm 25.5 SE 14 19 1015.0 - 0.0 - - - - - - -
20/05:00pm 26.3 SSE 15 21 1014.8 - 0.0 - - - - - - -
20/04:30pm 26.6 SSE 17 21 1014.6 - 0.0 - - - - - - -
20/04:00pm 27.1 SSE 15 19 1014.5 - 0.0 - - - - - - -
20/03:30pm 27.1 SSE 14 19 1014.5 - 0.0 - - - - - - -
20/03:00pm 27.7 SSE 16 19 1014.5 - 0.0 - - - - - - -
20/02:30pm 28.5 SSE 15 20 1014.6 - 0.0 - - - - - - -
20/02:00pm 28.4 SE 16 20 1014.9 - 0.0 - - - - - - -
20/01:30pm 28.5 SE 15 20 1015.1 - 0.0 - - - - - - -
20/01:00pm 27.9 SSE 16 22 1015.6 - 0.0 - - - - - - -
20/12:30pm 28.0 SSE 17 22 1016.0 - 0.0 - - - - - - -
20/12:00pm 28.3 SSE 16 20 1016.4 - 0.0 - - - - - - -
20/11:30am 27.7 SE 16 21 1016.6 - 0.0 - - - - - - -
20/11:00am 27.3 SE 16 21 1016.9 - 0.0 - - - - - - -
20/10:30am 27.7 SE 16 21 1017.0 - 0.0 - - - - - - -
20/10:00am 27.7 SE 15 20 1017.1 - 0.0 - - - - - - -
20/09:30am 27.2 SE 16 20 1017.1 - 0.0 - - - - - - -
20/09:00am 26.8 SE 15 19 1016.8 - 0.0 - - - - - - -
20/08:30am 26.4 SE 15 20 1016.5 - 0.0 - - - - - - -
20/08:00am 25.9 SE 13 18 1016.4 - 0.0 - - - - - - -
20/07:30am 25.1 SE 13 17 1016.1 - 0.0 - - - - - - -
20/07:00am 24.6 SE 12 16 1015.8 - 0.0 - - - - - - -
20/06:30am 24.4 SE 13 16 1015.5 - 0.0 - - - - - - -
20/06:00am 24.4 SE 12 15 1015.3 - 0.0 - - - - - - -
20/05:30am 24.3 SE 11 16 1015.1 - 0.0 - - - - - - -
20/05:00am 24.4 SE 12 17 1015.0 - 0.0 - - - - - - -
20/04:30am 24.3 SE 12 16 1014.9 - 0.0 - - - - - - -
20/04:00am 24.3 SE 11 14 1014.8 - 0.0 - - - - - - -

Other Formats:

Comma delimited format used in spreadsheet applications
http://www.bom.gov.au/fwo/IDQ60701/IDQ60701.94188.axf

JavaScript Object Notation format (JSON) in row-major order
http://www.bom.gov.au/fwo/IDQ60701/IDQ60701.94188.json